sensor_id;sensor_type;location;lat;lon;timestamp;pressure;altitude;pressure_sealevel;temperature;humidity
61740;BME280;47645;45.288;12.038;2024-03-29T00:01:48;1009.1832095760521;;;8.3833984375;100
61740;BME280;47645;45.288;12.038;2024-03-29T00:11:49;1009.2135370792384;;;8.255859375;100
61740;BME280;47645;45.288;12.038;2024-03-29T00:21:50;1009.2813199554807;;;8.1896484375;100
61740;BME280;47645;45.288;12.038;2024-03-29T00:31:51;1009.436535297886;;;8.138671875;100
61740;BME280;47645;45.288;12.038;2024-03-29T00:41:51;1009.2048543264276;;;8.0826171875;100
61740;BME280;47645;45.288;12.038;2024-03-29T00:51:52;1009.2746649898822;;;8.0724609375;100
61740;BME280;47645;45.288;12.038;2024-03-29T01:01:53;1009.1514902983045;;;7.93984375;100
61740;BME280;47645;45.288;12.038;2024-03-29T01:11:54;1009.2913373134484;;;7.8685546875;100
61740;BME280;47645;45.288;12.038;2024-03-29T01:21:54;1009.2898546127809;;;7.8888671875;100
61740;BME280;47645;45.288;12.038;2024-03-29T01:31:54;1009.3162085357393;;;7.7767578125;100
61740;BME280;47645;45.288;12.038;2024-03-29T01:41:56;1009.8250088380788;;;7.185546875;100
61740;BME280;47645;45.288;12.038;2024-03-29T01:51:56;1010.1525073346912;;;7.0990234375;100
61740;BME280;47645;45.288;12.038;2024-03-29T02:01:56;1010.229625006171;;;7.1908203125;100
61740;BME280;47645;45.288;12.038;2024-03-29T02:11:57;1010.4174870663047;;;7.2263671875;100
61740;BME280;47645;45.288;12.038;2024-03-29T02:21:59;1010.5230432957491;;;7.053125;100
61740;BME280;47645;45.288;12.038;2024-03-29T02:31:58;1010.7993344634375;;;7.175390625;100
61740;BME280;47645;45.288;12.038;2024-03-29T02:41:59;1010.5441217381996;;;7.6392578125;100
61740;BME280;47645;45.288;12.038;2024-03-29T02:52:00;1010.8357431127281;;;7.583203125;100
61740;BME280;47645;45.288;12.038;2024-03-29T03:02:00;1010.9080393809601;;;7.9501953125;100
61740;BME280;47645;45.288;12.038;2024-03-29T03:12:01;1011.0178022429774;;;7.904296875;100
61740;BME280;47645;45.288;12.038;2024-03-29T03:22:02;1011.2653668464465;;;7.7818359375;100
61740;BME280;47645;45.288;12.038;2024-03-29T03:32:03;1011.3289287873991;;;7.6697265625;100
61740;BME280;47645;45.288;12.038;2024-03-29T03:42:03;1011.2225136575906;;;7.5525390625;100
61740;BME280;47645;45.288;12.038;2024-03-29T03:52:04;1011.4923628555562;;;7.399609375;100
61740;BME280;47645;45.288;12.038;2024-03-29T04:02:04;1011.6021115711405;;;7.5220703125;100
61740;BME280;47645;45.288;12.038;2024-03-29T04:12:05;1011.5398042721826;;;7.4099609375;100
61740;BME280;47645;45.288;12.038;2024-03-29T04:22:05;1011.7202687788621;;;7.282421875;100
61740;BME280;47645;45.288;12.038;2024-03-29T04:32:06;1011.9038863883558;;;7.272265625;100
61740;BME280;47645;45.288;12.038;2024-03-29T04:42:07;1011.7913257431568;;;7.155078125;100
61740;BME280;47645;45.288;12.038;2024-03-29T04:52:07;1011.9925983058658;;;7.155078125;100
61740;BME280;47645;45.288;12.038;2024-03-29T05:02:07;1012.0705569984959;;;7.3080078125;100
61740;BME280;47645;45.288;12.038;2024-03-29T05:12:08;1012.127394513175;;;7.292578125;100
61740;BME280;47645;45.288;12.038;2024-03-29T05:22:09;1012.1854460186134;;;7.282421875;100
61740;BME280;47645;45.288;12.038;2024-03-29T05:32:09;1012.1341456902663;;;7.6291015625;100
61740;BME280;47645;45.288;12.038;2024-03-29T05:42:10;1012.3354130344525;;;7.9705078125;100
61740;BME280;47645;45.288;12.038;2024-03-29T05:52:14;1012.3738243386255;;;8.266015625;100
61740;BME280;47645;45.288;12.038;2024-03-29T06:02:11;1012.2912496590316;;;8.3169921875;100
61740;BME280;47645;45.288;12.038;2024-03-29T06:12:12;1012.4576251406626;;;8.378125;100
61740;BME280;47645;45.288;12.038;2024-03-29T06:22:13;1012.3330794873838;;;8.449609375;100
61740;BME280;47645;45.288;12.038;2024-03-29T06:32:13;1012.395431361866;;;8.6228515625;100
61740;BME280;47645;45.288;12.038;2024-03-29T06:42:14;1012.5499728865793;;;8.9591796875;100
61740;BME280;47645;45.288;12.038;2024-03-29T06:52:14;1012.601195080681;;;9.0203125;100
61740;BME280;47645;45.288;12.038;2024-03-29T07:02:15;1012.5295759784588;;;9.229296875;100
61740;BME280;47645;45.288;12.038;2024-03-29T07:12:16;1012.5899750801451;;;9.5095703125;100
61740;BME280;47645;45.288;12.038;2024-03-29T07:22:16;1012.5816531059401;;;9.6166015625;100
61740;BME280;47645;45.288;12.038;2024-03-29T07:32:17;1012.6626390180573;;;9.67265625;100
61740;BME280;47645;45.288;12.038;2024-03-29T07:42:19;1012.7075770736394;;;10.0703125;100
61740;BME280;47645;45.288;12.038;2024-03-29T07:52:20;1012.742469214928;;;10.630859375;100
61740;BME280;47645;45.288;12.038;2024-03-29T08:02:19;1012.9649040835487;;;10.9978515625;100
61740;BME280;47645;45.288;12.038;2024-03-29T08:12:23;1012.880625224168;;;11.4515625;100
61740;BME280;47645;45.288;12.038;2024-03-29T08:22:21;1012.939264850059;;;11.9611328125;100
61740;BME280;47645;45.288;12.038;2024-03-29T08:32:21;1013.0992712624122;;;11.9560546875;100
61740;BME280;47645;45.288;12.038;2024-03-29T08:42:22;1013.0228044352027;;;12.3638671875;100
61740;BME280;47645;45.288;12.038;2024-03-29T08:52:23;1013.282003175086;;;12.633984375;100
61740;BME280;47645;45.288;12.038;2024-03-29T09:02:24;1013.177141481789;;;12.8021484375;100
61740;BME280;47645;45.288;12.038;2024-03-29T09:12:24;1013.240400335133;;;13.3626953125;100
61740;BME280;47645;45.288;12.038;2024-03-29T09:22:25;1013.1979767703735;;;13.8572265625;100
61740;BME280;47645;45.288;12.038;2024-03-29T09:32:26;1013.2390412294312;;;14.12734375;100
61740;BME280;47645;45.288;12.038;2024-03-29T09:42:27;1013.1915046187298;;;14.55546875;100
61740;BME280;47645;45.288;12.038;2024-03-29T09:52:28;1013.168130279288;;;14.667578125;100
61740;BME280;47645;45.288;12.038;2024-03-29T10:02:31;1013.0378688296734;;;14.8;100
61740;BME280;47645;45.288;12.038;2024-03-29T10:12:29;1012.8531651681077;;;14.8103515625;100
61740;BME280;47645;45.288;12.038;2024-03-29T10:22:30;1013.011137361456;;;15.00390625;100
61740;BME280;47645;45.288;12.038;2024-03-29T10:32:31;1013.026554703595;;;14.9734375;100
61740;BME280;47645;45.288;12.038;2024-03-29T10:42:35;1012.952113467805;;;15.2791015625;100
61740;BME280;47645;45.288;12.038;2024-03-29T10:52:34;1013.0510219743809;;;16.6349609375;100
61740;BME280;47645;45.288;12.038;2024-03-29T11:02:42;1013.0649975630906;;;16.8439453125;100
61740;BME280;47645;45.288;12.038;2024-03-29T11:12:41;1012.955366844439;;;16.787890625;100
61740;BME280;47645;45.288;12.038;2024-03-29T11:22:36;1012.8773655445553;;;16.2375;100
61740;BME280;47645;45.288;12.038;2024-03-29T11:32:38;1012.7554387298892;;;16.5126953125;100
61740;BME280;47645;45.288;12.038;2024-03-29T11:42:43;1012.7062541319937;;;16.6146484375;100
61740;BME280;47645;45.288;12.038;2024-03-29T11:52:39;1012.3997576492802;;;16.4208984375;100
61740;BME280;47645;45.288;12.038;2024-03-29T12:02:39;1012.2442372272692;;;17.1396484375;100
61740;BME280;47645;45.288;12.038;2024-03-29T12:12:42;1012.1003114742125;;;18.3119140625;100
61740;BME280;47645;45.288;12.038;2024-03-29T12:22:41;1012.1305699174844;;;18.6228515625;100
61740;BME280;47645;45.288;12.038;2024-03-29T12:32:42;1012.053218664119;;;18.8521484375;100
61740;BME280;47645;45.288;12.038;2024-03-29T12:42:44;1011.8571182681745;;;18.6228515625;100
61740;BME280;47645;45.288;12.038;2024-03-29T12:52:44;1011.7508842581575;;;18.811328125;100
61740;BME280;47645;45.288;12.038;2024-03-29T13:02:46;1011.6208698976484;;;19.20390625;100
61740;BME280;47645;45.288;12.038;2024-03-29T13:12:47;1011.5659131073755;;;18.80625;100
61740;BME280;47645;45.288;12.038;2024-03-29T13:22:50;1011.4677375052894;;;19.015234375;100
61740;BME280;47645;45.288;12.038;2024-03-29T13:32:49;1011.6016812324841;;;18.765625;100
61740;BME280;47645;45.288;12.038;2024-03-29T13:42:50;1011.5160895895112;;;18.14375;100
61740;BME280;47645;45.288;12.038;2024-03-29T13:52:52;1011.5590944783621;;;17.7052734375;100
61740;BME280;47645;45.288;12.038;2024-03-29T14:02:53;1011.625854971208;;;17.8736328125;100
61740;BME280;47645;45.288;12.038;2024-03-29T14:12:55;1011.5847168887367;;;17.3587890625;100
61740;BME280;47645;45.288;12.038;2024-03-29T14:22:58;1011.637606504034;;;17.848046875;100
61740;BME280;47645;45.288;12.038;2024-03-29T14:32:56;1011.5819833089002;;;17.7052734375;100
61740;BME280;47645;45.288;12.038;2024-03-29T14:42:58;1011.5720511690188;;;17.8072265625;100
61740;BME280;47645;45.288;12.038;2024-03-29T14:52:57;1011.4620584553278;;;18.1232421875;100
61740;BME280;47645;45.288;12.038;2024-03-29T15:02:58;1011.4083347217846;;;17.6748046875;100
61740;BME280;47645;45.288;12.038;2024-03-29T15:12:59;1011.5163125309008;;;17.7359375;100
61740;BME280;47645;45.288;12.038;2024-03-29T15:23:00;1011.4665978515668;;;16.981640625;100
61740;BME280;47645;45.288;12.038;2024-03-29T15:33:01;1011.3628859314903;;;16.808203125;100
61740;BME280;47645;45.288;12.038;2024-03-29T15:43:04;1011.2176297059742;;;16.3189453125;100
61740;BME280;47645;45.288;12.038;2024-03-29T15:53:05;1011.0860201992817;;;16.140625;100
61740;BME280;47645;45.288;12.038;2024-03-29T16:03:05;1011.0156225308031;;;15.8806640625;100
61740;BME280;47645;45.288;12.038;2024-03-29T16:13:05;1011.0822280030658;;;15.6564453125;100
61740;BME280;47645;45.288;12.038;2024-03-29T16:23:07;1011.0563879196445;;;15.29453125;100
61740;BME280;47645;45.288;12.038;2024-03-29T16:33:08;1010.8443143654163;;;15.1365234375;100
61740;BME280;47645;45.288;12.038;2024-03-29T16:43:13;1010.7536788012069;;;15.212890625;100
61740;BME280;47645;45.288;12.038;2024-03-29T16:53:09;1010.7647239923973;;;15.202734375;100
61740;BME280;47645;45.288;12.038;2024-03-29T17:03:10;1010.9071475483823;;;14.9734375;100
61740;BME280;47645;45.288;12.038;2024-03-29T17:13:11;1010.7996856909667;;;14.8560546875;100
61740;BME280;47645;45.288;12.038;2024-03-29T17:23:12;1010.6659048553915;;;14.8154296875;100
61740;BME280;47645;45.288;12.038;2024-03-29T17:33:13;1010.7468877975242;;;14.6318359375;100
61740;BME280;47645;45.288;12.038;2024-03-29T17:43:14;1010.9078914017177;;;14.6419921875;100
61740;BME280;47645;45.288;12.038;2024-03-29T17:53:15;1010.9935555681841;;;14.4126953125;100
61740;BME280;47645;45.288;12.038;2024-03-29T18:03:16;1011.1040633880424;;;14.3208984375;100
61740;BME280;47645;45.288;12.038;2024-03-29T18:13:17;1011.0842498069919;;;13.928515625;100
61740;BME280;47645;45.288;12.038;2024-03-29T18:23:18;1011.2184747483209;;;14.0099609375;100
61740;BME280;47645;45.288;12.038;2024-03-29T18:33:19;1011.3226508351726;;;13.9845703125;100
61740;BME280;47645;45.288;12.038;2024-03-29T18:43:20;1011.1987092109322;;;13.811328125;100
61740;BME280;47645;45.288;12.038;2024-03-29T18:53:21;1011.1420322930734;;;13.7806640625;100
61740;BME280;47645;45.288;12.038;2024-03-29T19:03:23;1010.9914714831501;;;13.6685546875;100
61740;BME280;47645;45.288;12.038;2024-03-29T19:13:22;1010.9463220994115;;;13.5767578125;100
61740;BME280;47645;45.288;12.038;2024-03-29T19:23:23;1010.9442765800048;;;13.5462890625;100
61740;BME280;47645;45.288;12.038;2024-03-29T19:33:24;1010.9831891360691;;;13.5921875;100
61740;BME280;47645;45.288;12.038;2024-03-29T19:43:25;1010.9802455843762;;;13.714453125;100
61740;BME280;47645;45.288;12.038;2024-03-29T19:53:25;1010.9915066623867;;;13.6888671875;100
61740;BME280;47645;45.288;12.038;2024-03-29T20:03:26;1010.976183663692;;;13.6431640625;100
61740;BME280;47645;45.288;12.038;2024-03-29T20:13:27;1010.9508442459498;;;13.709375;100
61740;BME280;47645;45.288;12.038;2024-03-29T20:23:28;1010.8168926806103;;;13.73984375;100
61740;BME280;47645;45.288;12.038;2024-03-29T20:33:31;1010.94419440229;;;14.0048828125;100
61740;BME280;47645;45.288;12.038;2024-03-29T20:43:30;1010.7989306065191;;;13.928515625;100
61740;BME280;47645;45.288;12.038;2024-03-29T20:53:31;1010.8125249029704;;;13.908203125;100
61740;BME280;47645;45.288;12.038;2024-03-29T21:13:32;1010.86778192179;;;13.81640625;100
61740;BME280;47645;45.288;12.038;2024-03-29T21:23:36;1010.8567382912412;;;13.8826171875;100
61740;BME280;47645;45.288;12.038;2024-03-29T21:33:34;1010.7999183792692;;;13.9845703125;100
61740;BME280;47645;45.288;12.038;2024-03-29T21:43:34;1010.618542821926;;;13.93359375;100
61740;BME280;47645;45.288;12.038;2024-03-29T21:53:35;1010.5178399420928;;;13.7908203125;100
61740;BME280;47645;45.288;12.038;2024-03-29T22:03:36;1010.5138619134506;;;13.73984375;100
61740;BME280;47645;45.288;12.038;2024-03-29T22:13:37;1010.4807875538615;;;13.6837890625;100
61740;BME280;47645;45.288;12.038;2024-03-29T22:23:38;1010.4090951172221;;;13.6685546875;100
61740;BME280;47645;45.288;12.038;2024-03-29T22:33:38;1010.3206156483855;;;13.530859375;100
61740;BME280;47645;45.288;12.038;2024-03-29T22:43:39;1010.3599651648834;;;13.5921875;100
61740;BME280;47645;45.288;12.038;2024-03-29T22:53:40;1010.283188380631;;;13.607421875;100
61740;BME280;47645;45.288;12.038;2024-03-29T23:03:43;1010.4808317593092;;;13.627734375;100
61740;BME280;47645;45.288;12.038;2024-03-29T23:13:42;1010.5069011423316;;;13.908203125;100
61740;BME280;47645;45.288;12.038;2024-03-29T23:23:42;1010.5166738578919;;;13.918359375;100
61740;BME280;47645;45.288;12.038;2024-03-29T23:33:43;1010.564199895783;;;14.0048828125;100
61740;BME280;47645;45.288;12.038;2024-03-29T23:43:44;1010.5756281272412;;;13.9234375;100
61740;BME280;47645;45.288;12.038;2024-03-29T23:53:45;1010.6596182543766;;;13.9693359375;100
